Time;durP1;ratioP1;P1;durP2;ratioP2;P2;SDS_P1;SDS_P2;PMS_P1;PMS_P2;Temp;Humidity;BMP_temperature;BMP_pressure;BME280_temperature;BME280_humidity;BME280_pressure;Samples;Min_cycle;Max_cycle;Signal;HPM_P1;HPM_P2
2022/09/14 01:44:15;;;;;;;9.40;2.53;;;;;;;20.99;100.00;94236.72;5335845;23;20114;-89
2022/09/14 01:46:47;;;;;;;11.10;2.50;;;;;;;21.07;100.00;94243.00;4963331;28;20034;-89
2022/09/14 01:49:22;;;;;;;8.50;2.13;;;;;;;21.08;100.00;94223.25;4947224;28;20027;-89
2022/09/14 01:51:52;;;;;;;5.60;2.00;;;;;;;21.07;100.00;94227.03;4960936;28;20023;-90
2022/09/14 01:54:26;;;;;;;8.63;2.03;;;;;;;21.05;100.00;94230.06;4960026;28;20031;-89
2022/09/14 01:56:55;;;;;;;3.53;2.08;;;;;;;21.05;100.00;94227.41;4978725;28;20120;-89
2022/09/14 01:59:29;;;;;;;4.72;2.08;;;;;;;21.12;100.00;94221.50;4947291;28;20129;-89
2022/09/14 02:01:55;;;;;;;4.63;1.90;;;;;;;21.10;100.00;94215.72;4946937;28;20023;-89
2022/09/14 02:04:35;;;;;;;4.90;1.67;;;;;;;21.07;100.00;94216.38;4963460;28;20432;-88
2022/09/14 02:07:01;;;;;;;4.68;2.15;;;;;;;21.00;100.00;94207.09;4963327;28;20041;-89
2022/09/14 02:09:27;;;;;;;5.35;2.08;;;;;;;20.88;100.00;94202.59;4947410;28;20034;-89
2022/09/14 02:11:54;;;;;;;3.97;2.10;;;;;;;21.05;100.00;94203.41;4946541;28;20030;-89
2022/09/14 02:14:21;;;;;;;6.03;1.85;;;;;;;20.94;100.00;94200.44;4946051;28;20030;-88
2022/09/14 02:16:46;;;;;;;7.20;1.95;;;;;;;20.86;100.00;94204.03;4946325;28;20125;-88
2022/09/14 02:19:12;;;;;;;3.92;1.58;;;;;;;21.01;100.00;94208.63;4961950;28;20109;-88
2022/09/14 02:21:39;;;;;;;5.95;1.73;;;;;;;20.80;100.00;94200.78;4963564;28;20332;-88
2022/09/14 02:24:04;;;;;;;4.50;1.98;;;;;;;20.72;100.00;94191.81;4963172;28;20037;-88
2022/09/14 02:26:30;;;;;;;3.15;1.83;;;;;;;20.31;100.00;94183.78;4963708;28;20343;-89
2022/09/14 02:28:56;;;;;;;5.90;2.13;;;;;;;20.51;100.00;94181.31;4963364;28;20085;-89
2022/09/14 02:31:24;;;;;;;9.43;1.92;;;;;;;20.41;100.00;94187.09;4963137;28;20034;-89
2022/09/14 02:34:22;;;;;;;3.53;1.90;;;;;;;20.51;100.00;94191.19;4962735;28;20089;-89
2022/09/14 02:37:00;;;;;;;5.75;1.90;;;;;;;20.46;100.00;94184.97;4963047;28;20026;-89
2022/09/14 02:40:00;;;;;;;5.25;1.80;;;;;;;20.53;100.00;94181.00;4962724;28;20026;-89
2022/09/14 02:42:49;;;;;;;5.25;1.70;;;;;;;20.51;100.00;94176.00;4949786;28;20089;-89
2022/09/14 02:45:24;;;;;;;12.73;1.92;;;;;;;20.54;100.00;94174.56;4963100;28;20037;-89
2022/09/14 02:48:12;;;;;;;3.45;1.70;;;;;;;20.60;100.00;94170.56;4979903;28;20030;-89
2022/09/14 02:50:51;;;;;;;5.90;1.77;;;;;;;20.48;100.00;94166.03;4963234;28;20027;-89
2022/09/14 02:53:34;;;;;;;5.15;1.88;;;;;;;20.08;100.00;94172.81;4963086;28;20384;-88
2022/09/14 02:56:04;;;;;;;10.20;1.75;;;;;;;20.19;100.00;94171.25;4946625;28;20077;-89
2022/09/14 02:58:41;;;;;;;4.97;1.88;;;;;;;20.21;100.00;94173.59;4962178;28;20023;-89
2022/09/14 03:01:09;;;;;;;3.03;1.83;;;;;;;20.49;100.00;94171.00;4946530;28;20415;-89
2022/09/14 03:03:34;;;;;;;3.20;1.77;;;;;;;20.52;100.00;94171.47;4962573;28;20023;-89
2022/09/14 03:06:00;;;;;;;9.30;2.35;;;;;;;20.40;100.00;94166.91;4962675;28;20023;-88
2022/09/14 03:08:26;;;;;;;4.05;2.00;;;;;;;20.26;100.00;94169.94;4963234;28;20026;-89
2022/09/14 03:10:51;;;;;;;4.05;1.92;;;;;;;20.47;100.00;94172.47;4962523;28;20027;-89
2022/09/14 03:13:17;;;;;;;3.92;1.90;;;;;;;20.51;100.00;94170.69;4962419;28;20035;-89
2022/09/14 03:15:42;;;;;;;4.38;2.20;;;;;;;20.54;100.00;94162.03;4962337;28;20089;-89
2022/09/14 03:18:08;;;;;;;5.40;1.90;;;;;;;20.40;100.00;94153.63;4962623;28;20034;-89
2022/09/14 03:20:34;;;;;;;5.70;2.28;;;;;;;20.29;100.00;94154.06;4962094;28;20109;-89
2022/09/14 03:23:00;;;;;;;3.47;2.10;;;;;;;20.47;100.00;94162.59;4979738;28;20436;-89
2022/09/14 03:25:27;;;;;;;2.70;1.85;;;;;;;20.50;100.00;94163.81;4962343;28;20093;-89
2022/09/14 03:27:55;;;;;;;5.50;1.90;;;;;;;20.54;100.00;94171.91;4962131;28;20022;-89
2022/09/14 03:30:21;;;;;;;10.82;1.92;;;;;;;20.35;100.00;94167.91;4961587;28;20026;-89
2022/09/14 03:32:47;;;;;;;5.22;2.13;;;;;;;20.50;100.00;94174.44;4962002;28;20029;-89
2022/09/14 03:35:13;;;;;;;6.93;2.00;;;;;;;20.47;100.00;94175.88;4978883;28;20375;-89
2022/09/14 03:37:40;;;;;;;5.00;2.13;;;;;;;20.54;100.00;94188.63;4962394;28;20027;-89
2022/09/14 03:40:06;;;;;;;7.03;2.45;;;;;;;20.25;100.00;94173.72;4961695;28;20138;-89
2022/09/14 03:42:32;;;;;;;6.00;2.08;;;;;;;20.31;100.00;94169.69;4961773;28;20030;-89
2022/09/14 03:44:57;;;;;;;7.65;2.17;;;;;;;20.32;100.00;94168.59;4961896;28;20027;-88
2022/09/14 03:47:23;;;;;;;3.40;2.00;;;;;;;20.20;100.00;94174.72;4961738;28;20331;-89
2022/09/14 03:49:49;;;;;;;6.93;2.35;;;;;;;20.03;100.00;94173.81;4962025;28;20022;-89
2022/09/14 03:52:15;;;;;;;6.93;2.42;;;;;;;19.96;100.00;94170.94;4962260;28;20430;-89
2022/09/14 03:54:40;;;;;;;9.57;2.42;;;;;;;19.94;100.00;94164.38;4945226;28;20039;-89
2022/09/14 03:57:06;;;;;;;5.38;2.20;;;;;;;19.81;100.00;94166.22;4961286;28;20025;-89
2022/09/14 03:59:32;;;;;;;8.30;3.22;;;;;;;19.91;100.00;94163.16;4960987;28;20089;-89
2022/09/14 04:01:57;;;;;;;11.02;2.35;;;;;;;19.97;100.00;94163.75;4961286;28;20026;-89
2022/09/14 04:04:23;;;;;;;7.43;2.42;;;;;;;20.05;100.00;94170.81;4945503;28;20031;-89
2022/09/14 04:07:03;;;;;;;6.53;2.28;;;;;;;20.16;100.00;94161.28;4945507;28;20038;-88
2022/09/14 04:09:29;;;;;;;4.43;2.10;;;;;;;20.09;100.00;94166.41;4957518;28;20121;-88
2022/09/14 04:11:54;;;;;;;7.78;2.20;;;;;;;19.87;100.00;94159.59;4945384;28;20118;-88
2022/09/14 04:14:22;;;;;;;4.60;2.00;;;;;;;19.85;100.00;94149.28;4960994;28;20447;-89
2022/09/14 04:16:47;;;;;;;3.65;1.88;;;;;;;19.93;100.00;94160.97;4961654;28;20054;-88
2022/09/14 04:19:13;;;;;;;5.10;1.80;;;;;;;19.95;100.00;94161.41;4961325;28;20114;-88
2022/09/14 04:21:38;;;;;;;6.00;2.33;;;;;;;20.00;100.00;94166.47;4961219;28;20031;-88
2022/09/14 04:24:04;;;;;;;5.45;2.00;;;;;;;20.05;100.00;94160.97;4959877;28;20034;-89
2022/09/14 04:26:30;;;;;;;4.43;2.53;;;;;;;19.94;100.00;94173.13;4961296;28;20038;-88
2022/09/14 04:28:56;;;;;;;5.60;2.78;;;;;;;20.06;100.00;94175.81;4960891;28;20420;-89
2022/09/14 04:31:22;;;;;;;5.70;2.00;;;;;;;20.03;100.00;94173.03;4961027;28;20031;-89
2022/09/14 04:33:49;;;;;;;12.23;2.70;;;;;;;20.13;100.00;94169.94;4980030;28;20034;-89
2022/09/14 04:36:18;;;;;;;3.00;2.13;;;;;;;20.24;100.00;94180.13;4980079;28;20037;-88
2022/09/14 04:38:44;;;;;;;4.72;2.22;;;;;;;20.21;100.00;94178.91;4960372;28;20027;-89
2022/09/14 04:41:13;;;;;;;7.38;2.08;;;;;;;20.15;100.00;94181.00;4960858;28;20442;-89
2022/09/14 04:43:40;;;;;;;6.43;2.00;;;;;;;20.20;100.00;94186.09;4960505;28;20071;-89
2022/09/14 04:46:09;;;;;;;5.55;2.22;;;;;;;20.36;100.00;94184.66;4960826;28;20023;-90
2022/09/14 04:48:36;;;;;;;6.95;2.20;;;;;;;20.41;100.00;94184.44;4960692;28;20121;-87
2022/09/14 04:51:07;;;;;;;3.58;2.00;;;;;;;20.52;100.00;94187.44;4977967;28;20030;-88
2022/09/14 04:53:33;;;;;;;6.10;2.35;;;;;;;20.51;100.00;94197.28;4961103;28;20470;-88
2022/09/14 04:56:04;;;;;;;3.25;1.85;;;;;;;20.66;100.00;94187.84;4945014;28;20484;-88
2022/09/14 04:58:30;;;;;;;4.60;2.25;;;;;;;20.72;100.00;94188.38;4944492;28;20066;-88
2022/09/14 05:01:03;;;;;;;3.35;1.77;;;;;;;20.83;100.00;94191.41;4960353;28;20403;-88
2022/09/14 05:03:29;;;;;;;4.40;1.60;;;;;;;20.85;100.00;94184.59;4960650;28;20034;-87
2022/09/14 05:05:54;;;;;;;5.47;1.58;;;;;;;20.60;100.00;94191.84;4977887;28;20033;-89
2022/09/14 05:08:20;;;;;;;3.00;1.80;;;;;;;20.64;100.00;94176.75;4960742;28;20118;-88
2022/09/14 05:10:45;;;;;;;7.18;1.83;;;;;;;20.44;100.00;94171.25;4978386;28;20030;-88
2022/09/14 05:13:13;;;;;;;6.97;1.80;;;;;;;20.65;100.00;94174.88;4981085;28;20088;-87
2022/09/14 05:15:38;;;;;;;7.50;2.40;;;;;;;20.53;100.00;94173.00;4964721;28;20029;-87
2022/09/14 05:18:04;;;;;;;10.90;2.17;;;;;;;20.49;100.00;94173.66;4948291;28;20023;-88
2022/09/14 05:20:29;;;;;;;3.65;2.00;;;;;;;20.39;100.00;94173.34;4963918;28;20030;-88
2022/09/14 05:22:55;;;;;;;6.45;1.90;;;;;;;20.26;100.00;94168.03;4964427;28;20026;-87
2022/09/14 05:25:20;;;;;;;5.82;2.10;;;;;;;20.08;100.00;94175.47;4964314;28;20030;-87
2022/09/14 05:27:46;;;;;;;8.25;2.42;;;;;;;20.14;100.00;94176.03;4948532;28;20102;-88
2022/09/14 05:30:11;;;;;;;4.68;2.03;;;;;;;20.29;100.00;94175.34;4964014;28;20034;-87
2022/09/14 05:32:37;;;;;;;6.18;2.10;;;;;;;20.25;100.00;94165.72;4964273;28;20348;-88
2022/09/14 05:35:02;;;;;;;5.88;2.17;;;;;;;20.48;100.00;94150.81;4964141;28;20031;-87
2022/09/14 05:37:30;;;;;;;9.20;2.83;;;;;;;20.49;100.00;94144.41;4964035;28;20113;-87
2022/09/14 05:39:55;;;;;;;3.80;2.00;;;;;;;20.58;100.00;94143.50;4980367;28;20121;-87
2022/09/14 05:42:21;;;;;;;3.85;2.05;;;;;;;20.80;100.00;94152.88;4981128;28;20065;-87
2022/09/14 05:44:46;;;;;;;12.43;2.50;;;;;;;20.62;100.00;94149.69;4981136;28;20030;-87
2022/09/14 05:47:11;;;;;;;6.45;2.15;;;;;;;20.77;100.00;94151.66;4948122;28;20027;-86
2022/09/14 05:49:37;;;;;;;3.15;1.90;;;;;;;21.05;100.00;94144.84;4963824;28;20420;-87
2022/09/14 05:52:02;;;;;;;5.55;2.22;;;;;;;21.29;100.00;94153.81;4963558;28;20121;-86
2022/09/14 05:54:28;;;;;;;4.70;1.83;;;;;;;21.53;100.00;94154.78;4963754;28;20351;-88
2022/09/14 05:56:53;;;;;;;5.00;1.88;;;;;;;21.78;100.00;94147.44;4963649;28;20030;-87
2022/09/14 05:59:18;;;;;;;3.47;2.10;;;;;;;21.95;100.00;94145.53;4963537;28;20106;-87
2022/09/14 06:01:44;;;;;;;4.57;1.98;;;;;;;22.21;100.00;94141.56;4958407;28;20126;-87
2022/09/14 06:04:10;;;;;;;3.80;1.65;;;;;;;22.44;100.00;94139.00;4979876;28;20350;-87
2022/09/14 06:06:36;;;;;;;4.18;1.95;;;;;;;22.46;100.00;94140.22;4963496;28;20129;-87
2022/09/14 06:09:01;;;;;;;4.78;2.00;;;;;;;22.56;100.00;94130.91;4963398;28;20448;-87
2022/09/14 06:11:29;;;;;;;2.95;1.70;;;;;;;22.70;100.00;94130.44;4963674;28;20030;-87
2022/09/14 06:13:55;;;;;;;12.95;2.03;;;;;;;22.12;100.00;94126.53;4963061;28;20061;-87
2022/09/14 06:16:22;;;;;;;4.82;1.90;;;;;;;22.18;100.00;94133.13;4963547;28;20030;-87
2022/09/14 06:18:48;;;;;;;2.78;1.60;;;;;;;22.16;100.00;94129.25;4947147;28;20030;-87
2022/09/14 06:21:17;;;;;;;5.63;1.80;;;;;;;22.32;100.00;94126.56;4980588;28;20031;-87
2022/09/14 06:23:43;;;;;;;3.97;1.60;;;;;;;22.41;100.00;94129.03;4979897;28;20039;-87
2022/09/14 06:26:09;;;;;;;6.65;1.85;;;;;;;22.39;100.00;94137.41;4963412;28;20335;-87
2022/09/14 06:28:34;;;;;;;5.43;1.98;;;;;;;22.64;100.00;94145.19;4963124;28;20027;-87
2022/09/14 06:31:03;;;;;;;2.92;1.50;;;;;;;22.81;100.00;94151.22;4963169;28;20325;-86
2022/09/14 06:33:29;;;;;;;5.55;2.03;;;;;;;22.70;100.00;94146.47;4963454;28;20038;-87
2022/09/14 06:35:59;;;;;;;13.25;2.10;;;;;;;22.84;100.00;94155.91;4980247;28;20105;-87
2022/09/14 06:38:26;;;;;;;4.10;1.48;;;;;;;23.16;100.00;94148.47;4980209;28;20121;-87
2022/09/14 06:40:52;;;;;;;4.55;1.50;;;;;;;23.05;100.00;94147.53;4963177;28;20110;-87
2022/09/14 06:43:17;;;;;;;6.18;1.50;;;;;;;22.92;100.00;94156.81;4979613;28;20066;-87
2022/09/14 06:45:43;;;;;;;8.30;2.20;;;;;;;23.04;100.00;94169.25;4971356;28;20125;-86
2022/09/14 06:48:08;;;;;;;3.42;1.35;;;;;;;23.38;100.00;94159.63;4967040;28;20037;-86
2022/09/14 06:50:33;;;;;;;7.35;1.80;;;;;;;23.35;100.00;94163.00;4965231;28;20030;-87
2022/09/14 06:52:59;;;;;;;3.10;1.45;;;;;;;23.72;100.00;94159.03;4943789;29;20117;-87
2022/09/14 06:55:25;;;;;;;2.30;1.30;;;;;;;23.94;100.00;94152.16;4960895;29;20079;-87
2022/09/14 06:57:52;;;;;;;7.68;1.40;;;;;;;24.13;100.00;94148.66;4960824;29;20042;-87
2022/09/14 07:00:18;;;;;;;3.30;1.45;;;;;;;24.52;100.00;94168.28;4960652;29;20097;-87
2022/09/14 07:02:43;;;;;;;3.33;1.23;;;;;;;24.41;100.00;94171.59;4943555;29;20035;-87
2022/09/14 07:05:09;;;;;;;5.18;1.55;;;;;;;25.10;100.00;94177.09;4927676;29;20023;-87
2022/09/14 07:07:35;;;;;;;7.38;1.20;;;;;;;24.97;100.00;94177.34;4946200;28;20027;-87
2022/09/14 07:10:00;;;;;;;4.60;1.60;;;;;;;25.46;100.00;94190.13;4952337;28;20077;-87
2022/09/14 07:12:26;;;;;;;3.05;1.20;;;;;;;25.82;98.68;94204.69;4962939;28;20440;-87
2022/09/14 07:14:52;;;;;;;6.70;1.30;;;;;;;26.01;97.49;94204.84;4946511;28;20041;-87
2022/09/14 07:17:18;;;;;;;2.58;1.40;;;;;;;26.04;94.83;94215.63;4946293;28;20023;-87
2022/09/14 07:19:44;;;;;;;2.88;1.35;;;;;;;25.57;97.17;94222.47;4962249;28;20065;-87
2022/09/14 07:22:09;;;;;;;2.17;1.20;;;;;;;25.71;97.05;94229.88;4979196;28;20026;-86
2022/09/14 07:24:34;;;;;;;2.92;1.30;;;;;;;25.82;99.54;94244.94;4979327;28;20035;-86
2022/09/14 07:27:01;;;;;;;5.68;1.55;;;;;;;25.93;100.00;94245.03;4970325;28;20031;-87
2022/09/14 07:29:26;;;;;;;3.05;1.33;;;;;;;25.89;100.00;94246.16;4955524;29;20365;-87
2022/09/14 07:31:53;;;;;;;4.45;1.58;;;;;;;25.34;100.00;94258.97;4942836;29;20030;-86
2022/09/14 07:34:18;;;;;;;2.92;1.40;;;;;;;24.78;100.00;94277.38;4941878;29;20023;-86
2022/09/14 07:36:44;;;;;;;4.53;1.50;;;;;;;25.13;100.00;94303.09;4942373;29;20031;-86
2022/09/14 07:39:13;;;;;;;4.63;1.33;;;;;;;25.38;100.00;94304.56;4959542;29;20496;-86
2022/09/14 07:41:39;;;;;;;6.15;1.40;;;;;;;25.48;99.55;94309.31;4959497;29;20392;-87
2022/09/14 07:44:06;;;;;;;5.13;1.35;;;;;;;25.75;99.37;94314.63;4942983;29;20039;-87
2022/09/14 07:46:39;;;;;;;3.22;1.40;;;;;;;26.21;99.39;94324.34;4942149;29;20030;-86
2022/09/14 07:49:05;;;;;;;3.40;1.40;;;;;;;26.66;91.19;94329.69;4959251;29;20031;-86
2022/09/14 07:51:32;;;;;;;3.35;1.65;;;;;;;26.90;95.58;94324.13;4942181;29;20125;-88
2022/09/14 07:53:59;;;;;;;3.75;1.50;;;;;;;26.72;100.00;94318.63;4942068;29;20448;-90
2022/09/14 07:56:25;;;;;;;4.40;1.20;;;;;;;26.61;100.00;94326.56;4942252;29;20077;-89
2022/09/14 07:58:55;;;;;;;5.97;1.83;;;;;;;26.60;100.00;94331.19;4958301;29;20113;-92
2022/09/14 08:01:22;;;;;;;4.30;1.58;;;;;;;26.71;100.00;94323.22;4942578;29;20031;-91
2022/09/14 08:03:47;;;;;;;4.13;1.35;;;;;;;27.00;100.00;94331.50;4942301;29;20034;-91
2022/09/14 08:06:19;;;;;;;4.00;1.40;;;;;;;26.85;94.65;94322.56;4942385;29;20031;-91
2022/09/14 08:08:47;;;;;;;4.97;1.48;;;;;;;27.14;99.98;94320.09;4941868;29;20019;-91
2022/09/14 08:11:15;;;;;;;4.00;1.30;;;;;;;27.63;95.96;94333.41;4926237;29;20075;-90
2022/09/14 08:13:43;;;;;;;10.32;1.90;;;;;;;26.61;100.00;94334.63;4942095;29;20057;-91
2022/09/14 08:16:10;;;;;;;2.38;1.20;;;;;;;26.86;96.03;94339.44;4942074;29;20332;-90
2022/09/14 08:18:36;;;;;;;4.20;1.60;;;;;;;26.45;92.85;94345.66;4942599;29;20499;-89
2022/09/14 08:21:07;;;;;;;5.13;1.42;;;;;;;26.31;99.66;94339.00;4942054;29;20031;-91
2022/09/14 08:23:33;;;;;;;10.95;2.30;;;;;;;26.10;100.00;94350.28;4942191;29;20049;-90
2022/09/14 08:26:07;;;;;;;8.02;1.83;;;;;;;25.50;100.00;94357.25;4941748;29;20491;-90
2022/09/14 08:28:33;;;;;;;9.10;1.45;;;;;;;25.60;100.00;94347.78;4941667;29;20114;-91
2022/09/14 08:31:07;;;;;;;5.78;1.45;;;;;;;25.63;100.00;94350.53;4941619;29;20031;-90
2022/09/14 08:33:34;;;;;;;4.78;1.60;;;;;;;26.48;100.00;94353.75;4958690;29;20031;-91
2022/09/14 08:36:00;;;;;;;2.47;1.40;;;;;;;26.40;100.00;94349.44;4926210;29;20035;-90
2022/09/14 08:38:25;;;;;;;5.10;1.48;;;;;;;25.40;100.00;94335.25;4941897;29;20042;-91
2022/09/14 08:40:52;;;;;;;4.88;1.55;;;;;;;26.44;100.00;94334.13;4941573;29;20444;-90
2022/09/14 08:43:18;;;;;;;2.53;1.30;;;;;;;25.08;100.00;94326.78;4925699;29;20035;-91
2022/09/14 08:45:44;;;;;;;2.97;1.52;;;;;;;24.70;100.00;94338.06;4941679;29;20035;-90
2022/09/14 08:48:25;;;;;;;3.55;1.95;;;;;;;25.09;100.00;94339.03;4941599;29;20027;-91
2022/09/14 08:50:52;;;;;;;6.60;2.00;;;;;;;25.34;100.00;94343.97;4941461;29;20035;-89
2022/09/14 08:53:21;;;;;;;8.57;1.58;;;;;;;25.34;100.00;94346.66;4941912;29;20078;-90
2022/09/14 08:56:12;;;;;;;2.88;1.27;;;;;;;25.81;100.00;94356.06;4926021;29;20027;-90
2022/09/14 08:58:59;;;;;;;4.30;1.55;;;;;;;26.27;100.00;94366.97;4936017;29;20039;-90
2022/09/14 09:01:38;;;;;;;4.65;1.40;;;;;;;26.66;100.00;94380.00;4957799;29;20425;-91
2022/09/14 09:04:16;;;;;;;2.63;1.40;;;;;;;26.59;100.00;94390.66;4958447;29;20086;-89
2022/09/14 09:06:56;;;;;;;10.32;2.08;;;;;;;25.80;100.00;94397.47;4941635;29;20031;-90
2022/09/14 09:09:32;;;;;;;2.42;1.40;;;;;;;25.99;92.92;94398.47;4958409;29;20027;-92
2022/09/14 09:11:58;;;;;;;2.03;1.13;;;;;;;26.86;89.27;94418.19;4941726;29;20033;-93
2022/09/14 09:14:36;;;;;;;9.38;1.70;;;;;;;25.69;100.00;94421.50;4926138;29;20086;-93
2022/09/14 09:17:15;;;;;;;4.78;1.92;;;;;;;25.64;92.44;94429.06;4925697;29;20093;-92
2022/09/14 09:20:07;;;;;;;4.00;1.88;;;;;;;25.56;92.89;94430.88;4941613;29;20106;-93
2022/09/14 09:22:41;;;;;;;2.35;1.40;;;;;;;25.30;98.52;94427.03;4941379;29;20134;-92
2022/09/14 09:25:15;;;;;;;4.85;1.63;;;;;;;25.95;95.12;94430.63;4941849;29;20034;-93
2022/09/14 09:27:40;;;;;;;4.40;1.40;;;;;;;24.92;90.27;94432.19;4925775;29;20040;-92
2022/09/14 09:30:11;;;;;;;6.57;1.55;;;;;;;25.31;89.71;94436.63;4941419;29;20031;-92
2022/09/14 09:32:38;;;;;;;3.38;1.52;;;;;;;25.00;89.36;94430.41;4941475;29;20035;-92
2022/09/14 09:35:05;;;;;;;6.68;1.80;;;;;;;25.37;88.59;94431.72;4941195;29;20082;-92
2022/09/14 09:37:33;;;;;;;5.35;1.63;;;;;;;25.23;88.77;94416.97;4941342;29;20031;-91
2022/09/14 09:39:59;;;;;;;2.80;1.23;;;;;;;25.22;88.24;94420.78;4941182;29;20031;-92
2022/09/14 09:42:26;;;;;;;5.47;1.60;;;;;;;25.20;90.26;94404.31;4941221;29;20031;-94
2022/09/14 09:44:59;;;;;;;4.97;1.60;;;;;;;24.99;84.21;94391.34;4941563;29;20429;-92
2022/09/14 09:47:39;;;;;;;4.68;1.20;;;;;;;25.04;90.93;94395.63;4941603;29;20041;-92
2022/09/14 09:50:05;;;;;;;6.00;1.27;;;;;;;25.81;82.52;94399.00;4925717;29;20341;-92
2022/09/14 09:52:31;;;;;;;9.07;1.60;;;;;;;25.13;87.66;94386.19;4941456;29;20035;-93
2022/09/14 09:54:57;;;;;;;5.43;1.40;;;;;;;25.20;82.29;94366.78;4941283;29;20034;-93
2022/09/14 09:57:29;;;;;;;4.35;1.33;;;;;;;25.07;86.55;94352.81;4925646;29;20424;-92
2022/09/14 10:00:20;;;;;;;4.83;1.57;;;;;;;24.98;88.28;94337.00;4945008;29;20130;-91
2022/09/14 10:02:46;;;;;;;4.32;1.45;;;;;;;25.39;78.72;94335.59;4945001;29;20133;-92
2022/09/14 10:05:21;;;;;;;3.60;1.30;;;;;;;25.38;87.76;94329.47;4944642;29;20082;-92
2022/09/14 10:08:13;;;;;;;4.63;1.30;;;;;;;25.72;85.65;94318.03;4944484;29;20333;-92
2022/09/14 10:10:46;;;;;;;3.58;1.20;;;;;;;25.92;86.04;94304.44;4941747;29;20039;-92
2022/09/14 10:13:32;;;;;;;4.65;1.70;;;;;;;26.11;87.76;94301.59;4945225;29;20142;-94
2022/09/14 10:16:15;;;;;;;5.10;1.73;;;;;;;26.65;88.96;94306.66;4928850;29;20395;-94
2022/09/14 10:18:48;;;;;;;2.85;1.35;;;;;;;26.67;85.84;94306.31;4944714;29;20091;-92
2022/09/14 10:21:16;;;;;;;7.75;1.48;;;;;;;27.11;82.17;94280.47;4928608;29;20042;-93
2022/09/14 10:23:42;;;;;;;4.38;1.67;;;;;;;26.50;87.98;94265.50;4944426;29;20035;-94
2022/09/14 10:26:10;;;;;;;6.82;1.85;;;;;;;25.64;97.44;94266.22;4944511;29;20035;-93
2022/09/14 10:28:38;;;;;;;3.80;1.40;;;;;;;26.52;91.26;94255.16;4960431;29;20031;-93
2022/09/14 10:31:12;;;;;;;3.72;1.75;;;;;;;26.94;88.61;94242.38;4960163;29;20039;-93
2022/09/14 10:33:38;;;;;;;3.33;1.63;;;;;;;27.18;86.75;94234.81;4928570;29;20031;-93
2022/09/14 10:36:10;;;;;;;2.65;1.65;;;;;;;27.16;84.08;94229.06;4928157;29;20086;-93
2022/09/14 10:38:44;;;;;;;6.47;1.77;;;;;;;27.44;88.72;94213.38;4944143;29;20039;-93
2022/09/14 10:41:32;;;;;;;4.00;1.50;;;;;;;26.37;100.00;94211.28;4943710;29;20039;-93
2022/09/14 10:44:35;;;;;;;2.72;1.27;;;;;;;26.82;94.87;94215.78;4960878;28;20429;-93
2022/09/14 10:50:40;;;;;;;7.50;1.83;;;;;;;26.77;100.00;94232.28;4960882;29;20081;-92
2022/09/14 10:53:21;;;;;;;4.43;1.42;;;;;;;27.37;86.49;94227.59;4944101;29;20130;-93
2022/09/14 10:56:19;;;;;;;5.47;2.00;;;;;;;27.33;99.85;94221.44;4959955;29;20035;-93
2022/09/14 10:59:02;;;;;;;8.77;1.65;;;;;;;26.64;100.00;94221.06;4943881;29;20042;-92
2022/09/14 11:01:37;;;;;;;4.40;1.60;;;;;;;27.34;97.69;94215.69;4959973;29;20031;-94
2022/09/14 11:04:34;;;;;;;7.38;1.75;;;;;;;27.03;89.82;94211.72;4960021;29;20031;-91
2022/09/14 11:07:13;;;;;;;5.15;1.35;;;;;;;26.44;88.53;94221.31;4945229;28;20034;-90
2022/09/14 11:10:05;;;;;;;3.70;1.70;;;;;;;26.33;66.62;94220.50;4979580;28;20026;-91
2022/09/14 11:12:53;;;;;;;2.42;1.10;;;;;;;26.19;70.80;94215.75;4960457;29;20429;-90
2022/09/14 11:15:25;;;;;;;5.20;1.58;;;;;;;26.66;66.26;94232.22;4942953;29;20413;-90
2022/09/14 11:18:27;;;;;;;4.82;1.30;;;;;;;26.23;67.42;94227.28;4943035;29;20038;-91
2022/09/14 11:21:10;;;;;;;2.05;1.23;;;;;;;26.72;67.80;94246.06;4952560;29;20130;-90
2022/09/14 11:23:45;;;;;;;6.73;1.50;;;;;;;26.51;69.66;94244.78;4943058;29;20066;-90
2022/09/14 11:26:19;;;;;;;3.72;1.30;;;;;;;26.48;66.52;94234.78;4942891;29;20035;-92
2022/09/14 11:28:51;;;;;;;2.67;1.20;;;;;;;27.36;67.17;94234.13;4943032;29;20083;-91
2022/09/14 11:31:40;;;;;;;3.17;1.20;;;;;;;26.82;67.68;94203.13;4942689;29;20110;-92
2022/09/14 11:34:32;;;;;;;5.25;1.20;;;;;;;27.03;65.15;94206.34;4942501;29;20027;-92
2022/09/14 11:37:18;;;;;;;2.63;0.95;;;;;;;26.65;69.67;94193.81;4942847;29;20031;-92
2022/09/14 11:40:05;;;;;;;3.78;1.25;;;;;;;26.65;65.15;94195.75;4942140;29;20186;-90
2022/09/14 11:42:44;;;;;;;10.07;1.20;;;;;;;26.78;65.83;94196.97;4942641;29;20092;-90
2022/09/14 11:45:30;;;;;;;4.88;1.20;;;;;;;28.39;60.74;94188.16;4939278;29;20117;-92
2022/09/14 11:48:01;;;;;;;3.20;0.80;;;;;;;28.21;60.18;94186.25;4940390;29;20027;-92
2022/09/14 11:50:29;;;;;;;3.33;1.27;;;;;;;28.02;68.42;94192.78;4923462;29;20417;-91
2022/09/14 11:53:02;;;;;;;3.85;1.30;;;;;;;28.35;59.51;94187.41;4939158;29;20035;-91
2022/09/14 11:55:28;;;;;;;3.83;0.93;;;;;;;28.44;61.07;94162.75;4923592;29;20150;-92
2022/09/14 11:57:55;;;;;;;2.65;1.20;;;;;;;29.13;58.91;94168.75;4932879;29;20086;-92
2022/09/14 12:00:22;;;;;;;3.92;1.00;;;;;;;28.64;61.93;94160.41;4942059;29;20125;-91
2022/09/14 12:02:58;;;;;;;4.57;1.33;;;;;;;27.61;65.84;94158.88;4958236;29;20337;-92
2022/09/14 12:05:26;;;;;;;3.30;1.13;;;;;;;27.51;65.83;94162.31;4942275;29;20114;-92
2022/09/14 12:08:02;;;;;;;3.97;1.10;;;;;;;28.14;70.10;94156.59;4942381;29;20027;-93
2022/09/14 12:10:28;;;;;;;7.78;1.35;;;;;;;27.34;72.95;94159.22;4942990;29;20056;-94
2022/09/14 12:12:57;;;;;;;6.65;1.25;;;;;;;27.27;70.76;94143.03;4927052;29;20031;-94
2022/09/14 12:15:25;;;;;;;6.00;1.17;;;;;;;27.80;69.77;94146.97;4942996;29;20130;-94
2022/09/14 12:21:23;;;;;;;4.85;1.20;;;;;;;27.02;76.46;94167.16;4958812;28;20034;-94
2022/09/14 12:23:55;;;;;;;7.68;1.23;;;;;;;27.07;72.98;94166.78;4942403;29;20133;-94
2022/09/14 12:26:30;;;;;;;5.50;1.17;;;;;;;26.92;72.89;94147.16;4943344;29;20035;-95
2022/09/14 12:29:02;;;;;;;5.50;1.33;;;;;;;27.12;74.92;94153.00;4942592;29;20086;-94
2022/09/14 12:31:34;;;;;;;6.35;1.15;;;;;;;27.20;73.25;94168.00;4942357;29;20031;-95
2022/09/14 12:34:20;;;;;;;8.00;1.20;;;;;;;27.09;71.14;94170.66;4958645;29;20031;-94
2022/09/14 12:36:46;;;;;;;7.30;1.35;;;;;;;26.98;83.21;94166.38;4958496;29;20389;-94
2022/09/14 12:39:33;;;;;;;4.43;1.45;;;;;;;27.15;90.98;94181.81;4958815;29;20039;-94
2022/09/14 12:42:08;;;;;;;5.50;1.20;;;;;;;28.01;75.26;94163.53;4926539;29;20031;-93
2022/09/14 12:44:41;;;;;;;6.88;1.30;;;;;;;28.27;66.57;94173.19;4957666;28;20387;-94
2022/09/14 12:47:26;;;;;;;5.15;1.27;;;;;;;28.01;73.37;94191.25;4961599;28;20027;-93
2022/09/14 12:49:55;;;;;;;6.68;1.42;;;;;;;28.26;65.94;94179.69;4961381;28;20030;-93
2022/09/14 12:52:46;;;;;;;6.82;1.60;;;;;;;28.43;58.93;94183.53;4961434;28;20084;-94
2022/09/14 12:55:43;;;;;;;8.45;1.55;;;;;;;28.35;62.41;94172.00;4961769;28;20034;-94
2022/09/14 12:58:32;;;;;;;12.73;1.80;;;;;;;27.70;63.90;94184.66;4945275;28;20130;-94
2022/09/14 13:01:24;;;;;;;20.10;1.77;;;;;;;27.79;61.95;94175.06;4960636;28;20129;-92
2022/09/14 13:03:54;;;;;;;7.80;1.38;;;;;;;27.62;63.12;94170.44;4960882;28;20122;-93
2022/09/14 13:06:22;;;;;;;10.00;1.60;;;;;;;27.60;59.75;94165.41;4961091;28;20034;-92
2022/09/14 13:08:55;;;;;;;10.35;1.95;;;;;;;27.25;62.13;94164.16;4961043;28;20026;-93
2022/09/14 13:11:24;;;;;;;9.35;1.38;;;;;;;27.28;62.79;94173.41;4961347;28;20027;-92
2022/09/14 13:13:49;;;;;;;10.27;1.70;;;;;;;27.95;61.97;94168.53;4960656;28;20027;-93
2022/09/14 13:16:21;;;;;;;12.43;1.55;;;;;;;27.87;60.80;94161.63;4960614;28;20487;-94
2022/09/14 13:18:47;;;;;;;14.25;1.70;;;;;;;28.49;58.68;94157.75;4944887;28;20030;-93
2022/09/14 13:21:22;;;;;;;13.77;2.00;;;;;;;28.02;62.03;94154.28;4945122;28;20041;-94
2022/09/14 13:23:48;;;;;;;14.85;1.95;;;;;;;28.31;60.22;94149.69;4961530;28;20026;-93
2022/09/14 13:26:23;;;;;;;7.15;1.65;;;;;;;27.76;58.80;94140.06;4961023;28;20041;-95
2022/09/14 13:28:51;;;;;;;16.10;1.75;;;;;;;27.59;60.81;94152.34;4961037;28;20396;-93
2022/09/14 13:31:26;;;;;;;12.98;2.15;;;;;;;27.89;58.87;94143.91;4944640;28;20421;-93
2022/09/14 13:33:55;;;;;;;13.05;2.03;;;;;;;28.17;58.46;94147.03;4963539;28;20035;-93